Arkansas City, AR

3:58 PM CDT on March 27, 2015 (GMT -0500)
Mid Delta Regional | | Change Station
CLOSE
Current Station
Airport
Location: Greenville,
Elevation: 131 ft
Nearby Weather Stations
Active Advisory: Flood Advisory

Elev 131 ft 33.48 °N, 90.99 °W | Updated 5 minutes ago

Mostly Cloudy
Mostly Cloudy
58 °F
Feels Like 58 °F
N
20
Wind Variable Wind from North

Today
High -- | Low -- °F
--% Chance of Precip.
Yesterday
High -- | Low -- °F
Precip. -- in
6:59 AM 7:21 PM
First Quarter, 55% visible
Pressure 30.11 in
Visibility 10.0 miles
Clouds Scattered Clouds 5000 ft
Mostly Cloudy 7000 ft
Mostly Cloudy 8000 ft
Dew Point 38 °F
Humidity 47%
Rainfall 0.00 in
Snow Depth Not available.
UV 3 out of 12
Pollen 9.80 out of 12
Air Quality Not available.
Flu Activity Not available.
METAR KGLH 272053Z AUTO 35017KT 10SM SCT050 BKN070 BKN080 14/03 A3008 RMK AO2 SLP195 T01440033 56009

More Conditions Fewer Conditions

Pressure 30.11 in
Visibility 10.0 miles
Clouds Scattered Clouds 5000 ft
Mostly Cloudy 7000 ft
Mostly Cloudy 8000 ft
Dew Point 38 °F
Humidity 47%
Rainfall 0.00 in
Snow Depth Not available.
UV 3 out of 12
Pollen 9.80 out of 12
Air Quality Not available.
Flu Activity Not available.
METAR KGLH 272053Z AUTO 35017KT 10SM SCT050 BKN070 BKN080 14/03 A3008 RMK AO2 SLP195 T01440033 56009

More Conditions Fewer Conditions

10-Day Weather Forecast

Almanac

Astronomy

Mar. 27, 2015 Rise Set
Actual Time
Civil Twilight
Nautical Twilight
Astronomical Twilight
Moon
Length of Visible Light
Length of Day
Tomorrow will be .
, % of the Moon is Illuminated

Today's Extremes

State Highs State Lows

Community

WunderPhotos

Upload Photos

1,808,822 photos uploaded!

WunderBlogs® & News

Nearby

Air Quality

  Air Quality AQ Index Pollutant
Not available.

Snow Depth

Station Depth Elevation

Earthquake Activity

City Distance Mag. Time & Date
Minimum magnitude displayed is 2.5.

Coastal Water Temperatures

Place Temperature

Stations

Nearby Weather Stations

Station Location Temp. Windchill Dew Point Humidity Wind Precip. Elev Updated Type
                   
Flood Advisory
Statement as of 10:26 AM CDT on March 27, 2015

The National Weather Service in Jackson has issued a
* Flood Advisory for
the Mississippi River near Arkansas City.
* Until Tuesday afternoon.
* At 10:00 am Friday the stage was 35.0 feet.
* Flood stage is 37.0 feet.
* Forecast... the river will rise to near 35.0 feet by Friday evening
March 27.
* Impact... at 35.0 feet... the Road to Donaldson Point is cut off.


              Flood observed forecast 7 am crest
location stg stg day time Sat sun Mon crest time date

Lower Mississippi River
Arkansas City 37 35.0 Fri 10 am 35.0 35.0 34.8 35.0 01 PM 03/27




Lat... Lon 3340 9128 3357 9128 3413 9108 3412 9066
      3358 9106 3340 9105